sensor_id;sensor_type;location;lat;lon;timestamp;temperature;humidity
19888;DHT22;10106;51.332;12.336;2023-07-31T00:02:23;16.20;99.90
19888;DHT22;10106;51.332;12.336;2023-07-31T00:04:49;16.30;99.90
19888;DHT22;10106;51.332;12.336;2023-07-31T00:07:14;16.20;99.90
19888;DHT22;10106;51.332;12.336;2023-07-31T00:09:40;16.20;99.90
19888;DHT22;10106;51.332;12.336;2023-07-31T00:12:06;16.30;99.90
19888;DHT22;10106;51.332;12.336;2023-07-31T00:14:32;16.30;99.90
19888;DHT22;10106;51.332;12.336;2023-07-31T00:16:57;16.20;99.90
19888;DHT22;10106;51.332;12.336;2023-07-31T00:19:25;16.30;99.90
19888;DHT22;10106;51.332;12.336;2023-07-31T00:21:51;16.30;99.90
19888;DHT22;10106;51.332;12.336;2023-07-31T00:24:16;16.30;99.90
19888;DHT22;10106;51.332;12.336;2023-07-31T00:26:42;16.30;99.90
19888;DHT22;10106;51.332;12.336;2023-07-31T00:29:08;16.30;99.90
19888;DHT22;10106;51.332;12.336;2023-07-31T00:31:33;16.30;99.90
19888;DHT22;10106;51.332;12.336;2023-07-31T00:33:59;16.30;99.90
19888;DHT22;10106;51.332;12.336;2023-07-31T00:36:24;16.30;99.90
19888;DHT22;10106;51.332;12.336;2023-07-31T00:38:50;16.30;99.90
19888;DHT22;10106;51.332;12.336;2023-07-31T00:41:16;16.30;99.90
19888;DHT22;10106;51.332;12.336;2023-07-31T00:43:41;16.40;99.90
19888;DHT22;10106;51.332;12.336;2023-07-31T00:46:07;16.30;99.90
19888;DHT22;10106;51.332;12.336;2023-07-31T00:48:33;16.30;99.90
19888;DHT22;10106;51.332;12.336;2023-07-31T00:50:59;16.40;99.90
19888;DHT22;10106;51.332;12.336;2023-07-31T00:53:26;16.40;99.90
19888;DHT22;10106;51.332;12.336;2023-07-31T00:55:52;16.50;99.90
19888;DHT22;10106;51.332;12.336;2023-07-31T00:58:18;16.50;99.90
19888;DHT22;10106;51.332;12.336;2023-07-31T01:00:44;16.50;99.90
19888;DHT22;10106;51.332;12.336;2023-07-31T01:03:09;16.50;99.90
19888;DHT22;10106;51.332;12.336;2023-07-31T01:11:19;16.70;99.90
19888;DHT22;10106;51.332;12.336;2023-07-31T01:13:25;16.70;99.90
19888;DHT22;10106;51.332;12.336;2023-07-31T01:15:54;16.80;99.90
19888;DHT22;10106;51.332;12.336;2023-07-31T01:18:19;16.80;99.90
19888;DHT22;10106;51.332;12.336;2023-07-31T01:20:46;16.80;99.90
19888;DHT22;10106;51.332;12.336;2023-07-31T01:23:22;16.80;99.90
19888;DHT22;10106;51.332;12.336;2023-07-31T01:26:09;16.80;99.90
19888;DHT22;10106;51.332;12.336;2023-07-31T01:31:20;16.70;99.90
19888;DHT22;10106;51.332;12.336;2023-07-31T01:33:46;16.70;99.90
19888;DHT22;10106;51.332;12.336;2023-07-31T01:36:12;16.70;99.90
19888;DHT22;10106;51.332;12.336;2023-07-31T01:38:38;16.70;99.90
19888;DHT22;10106;51.332;12.336;2023-07-31T01:41:03;16.70;99.90
19888;DHT22;10106;51.332;12.336;2023-07-31T01:43:29;16.70;99.90
19888;DHT22;10106;51.332;12.336;2023-07-31T01:45:54;16.70;99.90
19888;DHT22;10106;51.332;12.336;2023-07-31T01:48:20;16.60;99.90
19888;DHT22;10106;51.332;12.336;2023-07-31T01:50:46;16.60;99.90
19888;DHT22;10106;51.332;12.336;2023-07-31T01:53:11;16.60;99.90
19888;DHT22;10106;51.332;12.336;2023-07-31T01:55:38;16.60;99.90
19888;DHT22;10106;51.332;12.336;2023-07-31T01:58:04;16.60;99.90
19888;DHT22;10106;51.332;12.336;2023-07-31T02:00:30;16.60;99.90
19888;DHT22;10106;51.332;12.336;2023-07-31T02:03:02;16.50;99.90
19888;DHT22;10106;51.332;12.336;2023-07-31T02:05:27;16.50;99.90
19888;DHT22;10106;51.332;12.336;2023-07-31T02:07:53;16.50;99.90
19888;DHT22;10106;51.332;12.336;2023-07-31T02:10:18;16.60;99.90
19888;DHT22;10106;51.332;12.336;2023-07-31T02:12:44;16.50;99.90
19888;DHT22;10106;51.332;12.336;2023-07-31T02:15:09;16.50;99.90
19888;DHT22;10106;51.332;12.336;2023-07-31T02:17:35;16.50;99.90
19888;DHT22;10106;51.332;12.336;2023-07-31T02:20:10;16.40;99.90
19888;DHT22;10106;51.332;12.336;2023-07-31T02:22:36;16.40;99.90
19888;DHT22;10106;51.332;12.336;2023-07-31T02:25:01;16.40;99.90
19888;DHT22;10106;51.332;12.336;2023-07-31T02:27:27;16.40;99.90
19888;DHT22;10106;51.332;12.336;2023-07-31T02:29:53;16.30;99.90
19888;DHT22;10106;51.332;12.336;2023-07-31T02:32:19;16.30;99.90
19888;DHT22;10106;51.332;12.336;2023-07-31T02:34:45;16.40;99.90
19888;DHT22;10106;51.332;12.336;2023-07-31T02:37:10;16.30;99.90
19888;DHT22;10106;51.332;12.336;2023-07-31T02:39:36;16.40;99.90
19888;DHT22;10106;51.332;12.336;2023-07-31T02:42:01;16.40;99.90
19888;DHT22;10106;51.332;12.336;2023-07-31T02:44:27;16.30;99.90
19888;DHT22;10106;51.332;12.336;2023-07-31T02:46:53;16.30;99.90
19888;DHT22;10106;51.332;12.336;2023-07-31T02:49:19;16.30;99.90
19888;DHT22;10106;51.332;12.336;2023-07-31T02:51:44;16.30;99.90
19888;DHT22;10106;51.332;12.336;2023-07-31T02:54:10;16.30;99.90
19888;DHT22;10106;51.332;12.336;2023-07-31T02:56:35;16.30;99.90
19888;DHT22;10106;51.332;12.336;2023-07-31T02:59:01;16.30;99.90
19888;DHT22;10106;51.332;12.336;2023-07-31T03:01:26;16.20;99.90
19888;DHT22;10106;51.332;12.336;2023-07-31T03:03:52;16.20;99.90
19888;DHT22;10106;51.332;12.336;2023-07-31T03:06:18;16.20;99.90
19888;DHT22;10106;51.332;12.336;2023-07-31T03:08:44;16.20;99.90
19888;DHT22;10106;51.332;12.336;2023-07-31T03:11:09;16.20;99.90
19888;DHT22;10106;51.332;12.336;2023-07-31T03:13:35;16.20;99.90
19888;DHT22;10106;51.332;12.336;2023-07-31T03:16:00;16.20;99.90
19888;DHT22;10106;51.332;12.336;2023-07-31T03:18:26;16.20;99.90
19888;DHT22;10106;51.332;12.336;2023-07-31T03:20:52;16.20;99.90
19888;DHT22;10106;51.332;12.336;2023-07-31T03:23:28;16.20;99.90
19888;DHT22;10106;51.332;12.336;2023-07-31T03:26:00;16.20;99.90
19888;DHT22;10106;51.332;12.336;2023-07-31T03:28:26;16.20;99.90
19888;DHT22;10106;51.332;12.336;2023-07-31T03:30:52;16.20;99.90
19888;DHT22;10106;51.332;12.336;2023-07-31T03:33:18;16.20;99.90
19888;DHT22;10106;51.332;12.336;2023-07-31T03:35:43;16.20;99.90
19888;DHT22;10106;51.332;12.336;2023-07-31T03:38:09;16.20;99.90
19888;DHT22;10106;51.332;12.336;2023-07-31T03:40:34;16.20;99.90
19888;DHT22;10106;51.332;12.336;2023-07-31T03:43:00;16.20;99.90
19888;DHT22;10106;51.332;12.336;2023-07-31T03:45:26;16.20;99.90
19888;DHT22;10106;51.332;12.336;2023-07-31T03:47:51;16.20;99.90
19888;DHT22;10106;51.332;12.336;2023-07-31T03:50:17;16.20;99.90
19888;DHT22;10106;51.332;12.336;2023-07-31T03:52:43;16.20;99.90
19888;DHT22;10106;51.332;12.336;2023-07-31T03:55:08;16.20;99.90
19888;DHT22;10106;51.332;12.336;2023-07-31T03:57:34;16.20;99.90
19888;DHT22;10106;51.332;12.336;2023-07-31T03:59:59;16.20;99.90
19888;DHT22;10106;51.332;12.336;2023-07-31T04:02:25;16.20;99.90
19888;DHT22;10106;51.332;12.336;2023-07-31T04:04:50;16.20;99.90
19888;DHT22;10106;51.332;12.336;2023-07-31T04:07:16;16.20;99.90
19888;DHT22;10106;51.332;12.336;2023-07-31T04:09:42;16.20;99.90
19888;DHT22;10106;51.332;12.336;2023-07-31T04:12:07;16.20;99.90
19888;DHT22;10106;51.332;12.336;2023-07-31T04:17:02;16.20;99.90
19888;DHT22;10106;51.332;12.336;2023-07-31T04:19:27;16.20;99.90
19888;DHT22;10106;51.332;12.336;2023-07-31T04:21:53;16.20;99.90
19888;DHT22;10106;51.332;12.336;2023-07-31T04:24:18;16.20;99.90
19888;DHT22;10106;51.332;12.336;2023-07-31T04:26:50;16.20;99.90
19888;DHT22;10106;51.332;12.336;2023-07-31T04:29:15;16.20;99.90
19888;DHT22;10106;51.332;12.336;2023-07-31T04:31:41;16.20;99.90
19888;DHT22;10106;51.332;12.336;2023-07-31T04:34:07;16.20;99.90
19888;DHT22;10106;51.332;12.336;2023-07-31T04:36:33;16.20;99.90
19888;DHT22;10106;51.332;12.336;2023-07-31T04:38:59;16.30;99.90
19888;DHT22;10106;51.332;12.336;2023-07-31T04:41:27;16.30;99.90
19888;DHT22;10106;51.332;12.336;2023-07-31T04:43:53;16.30;99.90
19888;DHT22;10106;51.332;12.336;2023-07-31T04:46:19;16.30;99.90
19888;DHT22;10106;51.332;12.336;2023-07-31T04:48:44;16.30;99.90
19888;DHT22;10106;51.332;12.336;2023-07-31T04:51:10;16.30;99.90
19888;DHT22;10106;51.332;12.336;2023-07-31T04:53:36;16.30;99.90
19888;DHT22;10106;51.332;12.336;2023-07-31T04:56:01;16.30;99.90
19888;DHT22;10106;51.332;12.336;2023-07-31T04:58:27;16.20;99.90
19888;DHT22;10106;51.332;12.336;2023-07-31T05:06:03;16.10;99.90
19888;DHT22;10106;51.332;12.336;2023-07-31T05:08:29;16.10;99.90
19888;DHT22;10106;51.332;12.336;2023-07-31T05:10:55;16.10;99.90
19888;DHT22;10106;51.332;12.336;2023-07-31T05:13:21;16.10;99.90
19888;DHT22;10106;51.332;12.336;2023-07-31T05:15:46;16.10;99.90
19888;DHT22;10106;51.332;12.336;2023-07-31T05:18:14;16.10;99.90
19888;DHT22;10106;51.332;12.336;2023-07-31T05:20:40;16.10;99.90
19888;DHT22;10106;51.332;12.336;2023-07-31T05:23:06;16.10;99.90
19888;DHT22;10106;51.332;12.336;2023-07-31T05:25:32;16.00;99.90
19888;DHT22;10106;51.332;12.336;2023-07-31T05:27:57;16.00;99.90
19888;DHT22;10106;51.332;12.336;2023-07-31T05:30:23;16.00;99.90
19888;DHT22;10106;51.332;12.336;2023-07-31T05:32:48;16.00;99.90
19888;DHT22;10106;51.332;12.336;2023-07-31T05:35:14;16.10;99.90
19888;DHT22;10106;51.332;12.336;2023-07-31T05:37:40;16.20;99.90
19888;DHT22;10106;51.332;12.336;2023-07-31T05:40:06;16.20;99.90
19888;DHT22;10106;51.332;12.336;2023-07-31T05:42:31;16.20;99.90
19888;DHT22;10106;51.332;12.336;2023-07-31T05:44:57;16.20;99.90
19888;DHT22;10106;51.332;12.336;2023-07-31T05:47:22;16.30;99.90
19888;DHT22;10106;51.332;12.336;2023-07-31T05:49:48;16.30;99.90
19888;DHT22;10106;51.332;12.336;2023-07-31T05:52:18;16.40;99.90
19888;DHT22;10106;51.332;12.336;2023-07-31T05:54:44;16.40;99.90
19888;DHT22;10106;51.332;12.336;2023-07-31T05:57:14;16.40;99.90
19888;DHT22;10106;51.332;12.336;2023-07-31T05:59:40;16.40;99.90
19888;DHT22;10106;51.332;12.336;2023-07-31T06:02:13;16.50;99.90
19888;DHT22;10106;51.332;12.336;2023-07-31T06:07:40;16.50;99.90
19888;DHT22;10106;51.332;12.336;2023-07-31T06:10:06;16.50;99.90
19888;DHT22;10106;51.332;12.336;2023-07-31T06:12:38;16.60;99.90
19888;DHT22;10106;51.332;12.336;2023-07-31T06:15:04;16.60;99.90
19888;DHT22;10106;51.332;12.336;2023-07-31T06:17:30;16.60;99.90
19888;DHT22;10106;51.332;12.336;2023-07-31T06:19:58;16.60;99.90
19888;DHT22;10106;51.332;12.336;2023-07-31T06:22:24;16.60;99.90
19888;DHT22;10106;51.332;12.336;2023-07-31T06:24:50;16.70;99.90
19888;DHT22;10106;51.332;12.336;2023-07-31T06:27:15;16.80;99.90
19888;DHT22;10106;51.332;12.336;2023-07-31T06:29:41;16.90;99.90
19888;DHT22;10106;51.332;12.336;2023-07-31T06:32:07;17.00;99.90
19888;DHT22;10106;51.332;12.336;2023-07-31T06:34:35;17.10;99.90
19888;DHT22;10106;51.332;12.336;2023-07-31T06:37:00;17.20;99.90
19888;DHT22;10106;51.332;12.336;2023-07-31T06:39:26;17.20;99.90
19888;DHT22;10106;51.332;12.336;2023-07-31T06:41:52;17.40;99.90
19888;DHT22;10106;51.332;12.336;2023-07-31T06:44:17;17.40;99.90
19888;DHT22;10106;51.332;12.336;2023-07-31T06:46:44;17.40;99.90
19888;DHT22;10106;51.332;12.336;2023-07-31T06:49:09;17.40;99.90
19888;DHT22;10106;51.332;12.336;2023-07-31T06:51:35;17.40;99.90
19888;DHT22;10106;51.332;12.336;2023-07-31T06:54:01;17.40;99.90
19888;DHT22;10106;51.332;12.336;2023-07-31T06:56:27;17.40;99.90
19888;DHT22;10106;51.332;12.336;2023-07-31T06:58:52;17.40;99.90
19888;DHT22;10106;51.332;12.336;2023-07-31T07:01:18;17.50;99.90
19888;DHT22;10106;51.332;12.336;2023-07-31T07:03:44;17.50;99.90
19888;DHT22;10106;51.332;12.336;2023-07-31T07:06:10;17.50;99.90
19888;DHT22;10106;51.332;12.336;2023-07-31T07:08:35;17.50;99.90
19888;DHT22;10106;51.332;12.336;2023-07-31T07:11:01;17.50;99.90
19888;DHT22;10106;51.332;12.336;2023-07-31T07:13:26;17.50;99.90
19888;DHT22;10106;51.332;12.336;2023-07-31T07:15:52;17.50;99.90
19888;DHT22;10106;51.332;12.336;2023-07-31T07:18:18;17.50;99.90
19888;DHT22;10106;51.332;12.336;2023-07-31T07:20:48;17.60;99.90
19888;DHT22;10106;51.332;12.336;2023-07-31T07:23:14;17.70;99.90
19888;DHT22;10106;51.332;12.336;2023-07-31T07:25:40;17.70;99.90
19888;DHT22;10106;51.332;12.336;2023-07-31T07:28:06;17.70;99.90
19888;DHT22;10106;51.332;12.336;2023-07-31T07:30:31;17.80;99.90
19888;DHT22;10106;51.332;12.336;2023-07-31T07:32:57;17.80;99.90
19888;DHT22;10106;51.332;12.336;2023-07-31T07:35:22;17.90;99.90
19888;DHT22;10106;51.332;12.336;2023-07-31T07:37:48;17.90;99.90
19888;DHT22;10106;51.332;12.336;2023-07-31T07:40:15;18.00;99.90
19888;DHT22;10106;51.332;12.336;2023-07-31T07:42:41;18.10;99.90
19888;DHT22;10106;51.332;12.336;2023-07-31T07:45:06;18.10;99.90
19888;DHT22;10106;51.332;12.336;2023-07-31T07:47:32;18.20;99.90
19888;DHT22;10106;51.332;12.336;2023-07-31T07:49:58;18.40;99.90
19888;DHT22;10106;51.332;12.336;2023-07-31T07:52:23;18.50;99.90
19888;DHT22;10106;51.332;12.336;2023-07-31T07:54:49;18.70;99.90
19888;DHT22;10106;51.332;12.336;2023-07-31T07:57:15;18.90;99.90
19888;DHT22;10106;51.332;12.336;2023-07-31T07:59:41;19.00;99.90
19888;DHT22;10106;51.332;12.336;2023-07-31T08:02:06;18.90;99.90
19888;DHT22;10106;51.332;12.336;2023-07-31T08:04:32;19.00;99.90
19888;DHT22;10106;51.332;12.336;2023-07-31T08:06:57;19.00;99.90
19888;DHT22;10106;51.332;12.336;2023-07-31T08:09:23;19.10;99.90
19888;DHT22;10106;51.332;12.336;2023-07-31T08:11:49;19.00;99.90
19888;DHT22;10106;51.332;12.336;2023-07-31T08:14:14;18.90;99.90
19888;DHT22;10106;51.332;12.336;2023-07-31T08:16:40;18.90;99.90
19888;DHT22;10106;51.332;12.336;2023-07-31T08:19:05;19.10;99.90
19888;DHT22;10106;51.332;12.336;2023-07-31T08:21:31;19.20;99.90
19888;DHT22;10106;51.332;12.336;2023-07-31T08:23:57;19.20;99.90
19888;DHT22;10106;51.332;12.336;2023-07-31T08:26:23;19.20;99.90
19888;DHT22;10106;51.332;12.336;2023-07-31T08:28:48;19.30;99.90
19888;DHT22;10106;51.332;12.336;2023-07-31T08:31:14;19.50;99.90
19888;DHT22;10106;51.332;12.336;2023-07-31T08:33:40;19.60;99.90
19888;DHT22;10106;51.332;12.336;2023-07-31T08:36:05;20.00;99.90
19888;DHT22;10106;51.332;12.336;2023-07-31T08:38:31;20.10;99.90
19888;DHT22;10106;51.332;12.336;2023-07-31T08:40:57;20.20;99.90
19888;DHT22;10106;51.332;12.336;2023-07-31T08:43:25;20.50;99.90
19888;DHT22;10106;51.332;12.336;2023-07-31T08:45:51;20.70;99.90
19888;DHT22;10106;51.332;12.336;2023-07-31T08:48:17;20.80;99.90
19888;DHT22;10106;51.332;12.336;2023-07-31T08:50:42;20.70;99.90
19888;DHT22;10106;51.332;12.336;2023-07-31T08:53:08;20.70;99.90
19888;DHT22;10106;51.332;12.336;2023-07-31T08:55:34;20.70;99.90
19888;DHT22;10106;51.332;12.336;2023-07-31T08:58:00;20.70;99.90
19888;DHT22;10106;51.332;12.336;2023-07-31T09:00:28;20.50;99.90
19888;DHT22;10106;51.332;12.336;2023-07-31T09:05:23;20.30;99.90
19888;DHT22;10106;51.332;12.336;2023-07-31T09:07:51;20.40;99.90
19888;DHT22;10106;51.332;12.336;2023-07-31T09:10:17;20.50;99.90
19888;DHT22;10106;51.332;12.336;2023-07-31T09:12:43;20.50;99.90
19888;DHT22;10106;51.332;12.336;2023-07-31T09:15:09;20.70;99.90
19888;DHT22;10106;51.332;12.336;2023-07-31T09:17:35;20.60;99.90
19888;DHT22;10106;51.332;12.336;2023-07-31T09:20:13;20.50;99.90
19888;DHT22;10106;51.332;12.336;2023-07-31T09:22:40;20.50;99.90
19888;DHT22;10106;51.332;12.336;2023-07-31T09:25:19;20.50;99.90
19888;DHT22;10106;51.332;12.336;2023-07-31T09:27:54;20.50;99.90
19888;DHT22;10106;51.332;12.336;2023-07-31T09:30:20;20.60;99.90
19888;DHT22;10106;51.332;12.336;2023-07-31T09:32:47;20.40;99.90
19888;DHT22;10106;51.332;12.336;2023-07-31T09:35:27;20.40;99.90
19888;DHT22;10106;51.332;12.336;2023-07-31T09:37:53;20.30;99.90
19888;DHT22;10106;51.332;12.336;2023-07-31T09:40:26;20.30;99.90
19888;DHT22;10106;51.332;12.336;2023-07-31T09:42:56;20.20;99.90
19888;DHT22;10106;51.332;12.336;2023-07-31T09:45:22;20.20;99.90
19888;DHT22;10106;51.332;12.336;2023-07-31T09:47:48;20.10;99.90
19888;DHT22;10106;51.332;12.336;2023-07-31T09:50:14;20.10;99.90
19888;DHT22;10106;51.332;12.336;2023-07-31T09:52:41;20.10;99.90
19888;DHT22;10106;51.332;12.336;2023-07-31T09:55:07;20.30;99.90
19888;DHT22;10106;51.332;12.336;2023-07-31T09:57:33;20.50;99.90
19888;DHT22;10106;51.332;12.336;2023-07-31T09:59:59;20.60;99.90
19888;DHT22;10106;51.332;12.336;2023-07-31T10:02:25;20.70;99.90
19888;DHT22;10106;51.332;12.336;2023-07-31T10:04:53;20.70;99.90
19888;DHT22;10106;51.332;12.336;2023-07-31T10:07:23;20.60;99.90
19888;DHT22;10106;51.332;12.336;2023-07-31T10:09:51;20.50;99.90
19888;DHT22;10106;51.332;12.336;2023-07-31T10:12:17;20.90;99.90
19888;DHT22;10106;51.332;12.336;2023-07-31T10:14:44;21.30;99.90
19888;DHT22;10106;51.332;12.336;2023-07-31T10:17:10;22.00;99.90
19888;DHT22;10106;51.332;12.336;2023-07-31T10:19:36;22.50;99.90
19888;DHT22;10106;51.332;12.336;2023-07-31T10:22:02;23.10;99.90
19888;DHT22;10106;51.332;12.336;2023-07-31T10:24:28;23.40;99.90
19888;DHT22;10106;51.332;12.336;2023-07-31T10:26:54;23.40;99.90
19888;DHT22;10106;51.332;12.336;2023-07-31T10:29:23;23.40;99.90
19888;DHT22;10106;51.332;12.336;2023-07-31T10:31:49;23.30;99.90
19888;DHT22;10106;51.332;12.336;2023-07-31T10:34:16;23.10;99.90
19888;DHT22;10106;51.332;12.336;2023-07-31T10:36:42;22.90;99.90
19888;DHT22;10106;51.332;12.336;2023-07-31T10:41:52;22.30;99.90
19888;DHT22;10106;51.332;12.336;2023-07-31T10:44:18;22.10;99.90
19888;DHT22;10106;51.332;12.336;2023-07-31T10:46:45;22.10;99.90
19888;DHT22;10106;51.332;12.336;2023-07-31T10:49:10;21.90;99.90
19888;DHT22;10106;51.332;12.336;2023-07-31T10:51:46;21.90;99.90
19888;DHT22;10106;51.332;12.336;2023-07-31T10:54:13;21.80;99.90
19888;DHT22;10106;51.332;12.336;2023-07-31T10:56:40;22.10;99.90
19888;DHT22;10106;51.332;12.336;2023-07-31T10:59:10;22.60;99.90
19888;DHT22;10106;51.332;12.336;2023-07-31T11:01:54;23.10;99.90
19888;DHT22;10106;51.332;12.336;2023-07-31T11:04:25;23.70;99.90
19888;DHT22;10106;51.332;12.336;2023-07-31T11:06:58;23.70;99.90
19888;DHT22;10106;51.332;12.336;2023-07-31T11:09:24;23.40;99.90
19888;DHT22;10106;51.332;12.336;2023-07-31T11:11:50;23.30;99.90
19888;DHT22;10106;51.332;12.336;2023-07-31T11:14:17;23.20;99.90
19888;DHT22;10106;51.332;12.336;2023-07-31T11:16:43;23.10;99.90
19888;DHT22;10106;51.332;12.336;2023-07-31T11:19:11;23.20;99.90
19888;DHT22;10106;51.332;12.336;2023-07-31T11:21:37;23.20;99.90
19888;DHT22;10106;51.332;12.336;2023-07-31T11:24:03;23.30;99.90
19888;DHT22;10106;51.332;12.336;2023-07-31T11:26:29;23.50;99.90
19888;DHT22;10106;51.332;12.336;2023-07-31T11:28:56;23.50;99.90
19888;DHT22;10106;51.332;12.336;2023-07-31T11:31:22;23.60;99.90
19888;DHT22;10106;51.332;12.336;2023-07-31T11:33:47;23.80;99.90
19888;DHT22;10106;51.332;12.336;2023-07-31T11:36:14;23.60;99.90
19888;DHT22;10106;51.332;12.336;2023-07-31T11:38:40;23.70;99.90
19888;DHT22;10106;51.332;12.336;2023-07-31T11:41:06;23.70;99.90
19888;DHT22;10106;51.332;12.336;2023-07-31T11:43:31;23.70;99.90
19888;DHT22;10106;51.332;12.336;2023-07-31T11:45:58;23.80;99.90
19888;DHT22;10106;51.332;12.336;2023-07-31T11:48:27;23.80;99.90
19888;DHT22;10106;51.332;12.336;2023-07-31T11:50:58;23.80;99.90
19888;DHT22;10106;51.332;12.336;2023-07-31T11:53:26;23.70;99.90
19888;DHT22;10106;51.332;12.336;2023-07-31T11:55:52;23.50;99.90
19888;DHT22;10106;51.332;12.336;2023-07-31T11:58:19;23.30;99.90
19888;DHT22;10106;51.332;12.336;2023-07-31T12:00:45;23.20;99.90
19888;DHT22;10106;51.332;12.336;2023-07-31T12:03:11;23.10;99.90
19888;DHT22;10106;51.332;12.336;2023-07-31T12:05:37;23.20;99.90
19888;DHT22;10106;51.332;12.336;2023-07-31T12:08:08;23.20;99.90
19888;DHT22;10106;51.332;12.336;2023-07-31T12:10:40;23.10;99.90
19888;DHT22;10106;51.332;12.336;2023-07-31T12:13:07;23.20;99.90
19888;DHT22;10106;51.332;12.336;2023-07-31T12:15:42;23.50;99.90
19888;DHT22;10106;51.332;12.336;2023-07-31T12:18:10;23.60;99.90
19888;DHT22;10106;51.332;12.336;2023-07-31T12:20:39;23.50;99.90
19888;DHT22;10106;51.332;12.336;2023-07-31T12:23:05;23.40;99.90
19888;DHT22;10106;51.332;12.336;2023-07-31T12:25:32;23.40;99.90
19888;DHT22;10106;51.332;12.336;2023-07-31T12:27:58;23.60;99.90
19888;DHT22;10106;51.332;12.336;2023-07-31T12:30:27;23.80;99.90
19888;DHT22;10106;51.332;12.336;2023-07-31T12:32:53;23.60;99.90
19888;DHT22;10106;51.332;12.336;2023-07-31T12:35:19;23.80;99.90
19888;DHT22;10106;51.332;12.336;2023-07-31T12:37:45;23.90;99.90
19888;DHT22;10106;51.332;12.336;2023-07-31T12:40:11;24.00;99.90
19888;DHT22;10106;51.332;12.336;2023-07-31T12:42:38;24.10;99.90
19888;DHT22;10106;51.332;12.336;2023-07-31T12:45:12;23.90;99.90
19888;DHT22;10106;51.332;12.336;2023-07-31T12:50:07;23.70;99.90
19888;DHT22;10106;51.332;12.336;2023-07-31T12:52:33;23.80;99.90
19888;DHT22;10106;51.332;12.336;2023-07-31T12:55:01;24.00;99.90
19888;DHT22;10106;51.332;12.336;2023-07-31T12:57:27;24.00;99.90
19888;DHT22;10106;51.332;12.336;2023-07-31T12:59:53;24.00;99.90
19888;DHT22;10106;51.332;12.336;2023-07-31T13:02:19;24.20;99.90
19888;DHT22;10106;51.332;12.336;2023-07-31T13:04:44;24.50;99.90
19888;DHT22;10106;51.332;12.336;2023-07-31T13:07:12;24.50;99.90
19888;DHT22;10106;51.332;12.336;2023-07-31T13:09:38;24.60;99.90
19888;DHT22;10106;51.332;12.336;2023-07-31T13:12:04;24.80;99.90
19888;DHT22;10106;51.332;12.336;2023-07-31T13:14:35;25.10;99.90
19888;DHT22;10106;51.332;12.336;2023-07-31T13:17:01;25.40;99.90
19888;DHT22;10106;51.332;12.336;2023-07-31T13:19:26;25.50;99.90
19888;DHT22;10106;51.332;12.336;2023-07-31T13:21:52;25.10;99.90
19888;DHT22;10106;51.332;12.336;2023-07-31T13:29:21;24.80;99.90
19888;DHT22;10106;51.332;12.336;2023-07-31T13:31:47;24.70;99.90
19888;DHT22;10106;51.332;12.336;2023-07-31T13:34:13;24.90;99.90
19888;DHT22;10106;51.332;12.336;2023-07-31T13:36:38;25.30;99.90
19888;DHT22;10106;51.332;12.336;2023-07-31T13:39:04;25.10;99.90
19888;DHT22;10106;51.332;12.336;2023-07-31T13:41:39;24.80;99.90
19888;DHT22;10106;51.332;12.336;2023-07-31T13:44:05;24.60;99.90
19888;DHT22;10106;51.332;12.336;2023-07-31T13:46:31;24.70;99.90
19888;DHT22;10106;51.332;12.336;2023-07-31T13:48:58;24.70;99.90
19888;DHT22;10106;51.332;12.336;2023-07-31T13:51:25;24.50;99.90
19888;DHT22;10106;51.332;12.336;2023-07-31T13:53:50;24.50;99.90
19888;DHT22;10106;51.332;12.336;2023-07-31T13:56:16;24.30;99.90
19888;DHT22;10106;51.332;12.336;2023-07-31T13:58:42;24.30;99.90
19888;DHT22;10106;51.332;12.336;2023-07-31T14:01:07;24.40;99.90
19888;DHT22;10106;51.332;12.336;2023-07-31T14:03:40;24.10;99.90
19888;DHT22;10106;51.332;12.336;2023-07-31T14:06:05;23.90;99.90
19888;DHT22;10106;51.332;12.336;2023-07-31T14:08:31;23.80;99.90
19888;DHT22;10106;51.332;12.336;2023-07-31T14:10:56;23.60;99.90
19888;DHT22;10106;51.332;12.336;2023-07-31T14:13:22;23.30;99.90
19888;DHT22;10106;51.332;12.336;2023-07-31T14:15:48;23.00;99.90
19888;DHT22;10106;51.332;12.336;2023-07-31T14:18:13;22.90;99.90
19888;DHT22;10106;51.332;12.336;2023-07-31T14:20:39;22.70;99.90
19888;DHT22;10106;51.332;12.336;2023-07-31T14:23:06;22.60;99.90
19888;DHT22;10106;51.332;12.336;2023-07-31T14:25:32;22.50;99.90
19888;DHT22;10106;51.332;12.336;2023-07-31T14:27:58;22.50;99.90
19888;DHT22;10106;51.332;12.336;2023-07-31T14:30:23;22.60;99.90
19888;DHT22;10106;51.332;12.336;2023-07-31T14:32:49;22.70;99.90
19888;DHT22;10106;51.332;12.336;2023-07-31T14:35:15;22.70;99.90
19888;DHT22;10106;51.332;12.336;2023-07-31T14:37:40;22.70;99.90
19888;DHT22;10106;51.332;12.336;2023-07-31T14:40:10;22.90;99.90
19888;DHT22;10106;51.332;12.336;2023-07-31T14:42:38;23.20;99.90
19888;DHT22;10106;51.332;12.336;2023-07-31T14:45:04;23.30;99.90
19888;DHT22;10106;51.332;12.336;2023-07-31T14:47:30;23.20;99.90
19888;DHT22;10106;51.332;12.336;2023-07-31T14:49:57;23.00;99.90
19888;DHT22;10106;51.332;12.336;2023-07-31T14:52:23;22.80;99.90
19888;DHT22;10106;51.332;12.336;2023-07-31T14:54:48;22.70;99.90
19888;DHT22;10106;51.332;12.336;2023-07-31T14:57:14;22.60;99.90
19888;DHT22;10106;51.332;12.336;2023-07-31T14:59:40;22.40;99.90
19888;DHT22;10106;51.332;12.336;2023-07-31T15:02:06;22.40;99.90
19888;DHT22;10106;51.332;12.336;2023-07-31T15:04:38;22.40;99.90
19888;DHT22;10106;51.332;12.336;2023-07-31T15:07:04;22.30;99.90
19888;DHT22;10106;51.332;12.336;2023-07-31T15:09:30;22.30;99.90
19888;DHT22;10106;51.332;12.336;2023-07-31T15:11:56;22.40;99.90
19888;DHT22;10106;51.332;12.336;2023-07-31T15:14:22;22.50;99.90
19888;DHT22;10106;51.332;12.336;2023-07-31T15:16:48;22.60;99.90
19888;DHT22;10106;51.332;12.336;2023-07-31T15:19:14;22.70;99.90
19888;DHT22;10106;51.332;12.336;2023-07-31T15:21:42;22.90;99.90
19888;DHT22;10106;51.332;12.336;2023-07-31T15:24:08;22.80;99.90
19888;DHT22;10106;51.332;12.336;2023-07-31T15:26:37;22.80;99.90
19888;DHT22;10106;51.332;12.336;2023-07-31T15:29:09;22.60;99.90
19888;DHT22;10106;51.332;12.336;2023-07-31T15:34:17;22.40;99.90
19888;DHT22;10106;51.332;12.336;2023-07-31T15:36:44;22.30;99.90
19888;DHT22;10106;51.332;12.336;2023-07-31T15:39:10;22.30;99.90
19888;DHT22;10106;51.332;12.336;2023-07-31T15:41:39;22.20;99.90
19888;DHT22;10106;51.332;12.336;2023-07-31T15:44:06;22.30;99.90
19888;DHT22;10106;51.332;12.336;2023-07-31T15:46:33;22.30;99.90